Time;durP1;ratioP1;P1;durP2;ratioP2;P2;SDS_P1;SDS_P2;PMS_P1;PMS_P2;Temp;Humidity;BMP_temperature;BMP_pressure;BME280_temperature;BME280_humidity;BME280_pressure;Samples;Min_cycle;Max_cycle;Signal;HPM_P1;HPM_P2
2023/07/24 00:02:03;;;;;;;10.70;1.85;;;;;;;;;;5061955;28;20540;-73
2023/07/24 00:04:34;;;;;;;12.52;2.30;;;;;;;;;;5060097;28;20419;-75
2023/07/24 00:07:04;;;;;;;12.40;2.13;;;;;;;;;;5062277;28;20037;-74
2023/07/24 00:09:35;;;;;;;9.65;2.45;;;;;;;;;;5062879;28;20040;-72
2023/07/24 00:12:06;;;;;;;9.23;2.30;;;;;;;;;;5062630;28;20075;-74
2023/07/24 00:14:37;;;;;;;9.05;2.40;;;;;;;;;;5063099;28;20052;-74
2023/07/24 00:17:07;;;;;;;10.50;2.25;;;;;;;;;;5063095;28;20043;-73
2023/07/24 00:19:38;;;;;;;4.75;1.77;;;;;;;;;;5062268;28;20063;-72
2023/07/24 00:22:09;;;;;;;8.90;2.13;;;;;;;;;;5062802;28;20059;-73
2023/07/24 00:24:39;;;;;;;9.50;2.17;;;;;;;;;;5062698;28;20048;-73
2023/07/24 00:27:09;;;;;;;6.10;1.98;;;;;;;;;;5063639;28;20056;-72
2023/07/24 00:29:40;;;;;;;8.27;2.20;;;;;;;;;;5062401;28;20518;-73
2023/07/24 00:32:11;;;;;;;13.25;1.90;;;;;;;;;;5061127;28;20052;-73
2023/07/24 00:34:41;;;;;;;16.95;2.25;;;;;;;;;;5061080;28;20060;-72
2023/07/24 00:37:12;;;;;;;13.82;2.25;;;;;;;;;;5061515;28;20758;-73
2023/07/24 00:39:41;;;;;;;13.25;2.83;;;;;;;;;;5062952;28;20040;-73
2023/07/24 00:42:13;;;;;;;8.13;2.28;;;;;;;;;;5061152;28;20504;-72
2023/07/24 00:44:43;;;;;;;8.40;2.05;;;;;;;;;;5059710;28;20064;-73
2023/07/24 00:47:14;;;;;;;10.25;1.90;;;;;;;;;;5061278;28;20091;-73
2023/07/24 00:49:48;;;;;;;9.52;1.80;;;;;;;;;;5060305;28;20045;-73
2023/07/24 00:52:19;;;;;;;9.23;1.70;;;;;;;;;;5062336;28;20049;-72
2023/07/24 00:54:51;;;;;;;9.05;1.70;;;;;;;;;;5062771;28;20048;-74
2023/07/24 00:57:23;;;;;;;11.60;1.92;;;;;;;;;;5063847;28;20395;-73
2023/07/24 00:59:54;;;;;;;10.68;2.33;;;;;;;;;;5063499;28;20055;-73
2023/07/24 01:02:26;;;;;;;14.98;1.70;;;;;;;;;;5062856;28;20059;-72
2023/07/24 01:04:57;;;;;;;11.98;2.05;;;;;;;;;;5060581;28;20060;-72
2023/07/24 01:07:28;;;;;;;9.88;1.55;;;;;;;;;;5062327;28;20048;-72
2023/07/24 01:09:58;;;;;;;11.05;1.30;;;;;;;;;;5062029;28;20051;-75
2023/07/24 01:12:46;;;;;;;9.88;2.03;;;;;;;;;;5062141;28;20415;-71
2023/07/24 01:15:32;;;;;;;6.55;1.23;;;;;;;;;;5062663;28;20048;-72
2023/07/24 01:18:10;;;;;;;9.98;1.70;;;;;;;;;;5061830;28;20067;-72
2023/07/24 01:20:49;;;;;;;11.63;2.22;;;;;;;;;;5062465;28;20044;-73
2023/07/24 01:23:24;;;;;;;8.27;2.00;;;;;;;;;;5062802;28;20044;-73
2023/07/24 01:26:00;;;;;;;8.10;1.77;;;;;;;;;;5062437;28;20049;-72
2023/07/24 01:28:31;;;;;;;9.20;1.90;;;;;;;;;;5060122;28;20629;-73
2023/07/24 01:31:01;;;;;;;11.25;1.55;;;;;;;;;;5062605;28;20044;-73
2023/07/24 01:33:35;;;;;;;14.80;2.10;;;;;;;;;;5062547;28;20048;-72
2023/07/24 01:36:07;;;;;;;8.43;1.95;;;;;;;;;;5062274;28;20048;-73
2023/07/24 01:38:38;;;;;;;16.70;2.20;;;;;;;;;;5061048;28;20044;-73
2023/07/24 01:41:08;;;;;;;9.85;2.05;;;;;;;;;;5062873;28;20048;-72
2023/07/24 01:43:41;;;;;;;11.95;2.25;;;;;;;;;;5065339;28;20049;-72
2023/07/24 01:46:11;;;;;;;10.93;2.10;;;;;;;;;;5067213;28;20048;-72
2023/07/24 01:48:44;;;;;;;7.15;1.35;;;;;;;;;;5066422;28;20036;-73
2023/07/24 01:51:14;;;;;;;17.35;1.67;;;;;;;;;;5064506;28;20044;-73
2023/07/24 01:53:46;;;;;;;15.73;2.40;;;;;;;;;;5065319;28;20491;-72
2023/07/24 01:56:16;;;;;;;13.75;1.73;;;;;;;;;;5064746;28;21100;-73
2023/07/24 01:58:46;;;;;;;8.35;1.38;;;;;;;;;;5064574;28;20052;-71
2023/07/24 02:01:17;;;;;;;9.70;1.63;;;;;;;;;;5063821;28;20055;-71
2023/07/24 02:03:48;;;;;;;8.10;1.40;;;;;;;;;;5065305;28;20059;-73
2023/07/24 02:06:19;;;;;;;14.07;2.15;;;;;;;;;;5064774;28;20051;-72
2023/07/24 02:08:51;;;;;;;13.10;1.60;;;;;;;;;;5065784;28;20044;-72
2023/07/24 02:11:21;;;;;;;7.00;1.33;;;;;;;;;;5066891;28;20044;-73
2023/07/24 02:13:52;;;;;;;9.70;1.33;;;;;;;;;;5064729;28;20049;-73
2023/07/24 02:16:23;;;;;;;8.45;1.48;;;;;;;;;;5063998;28;20071;-72
2023/07/24 02:18:55;;;;;;;11.35;2.47;;;;;;;;;;5064843;28;20423;-71
2023/07/24 02:21:26;;;;;;;10.98;1.92;;;;;;;;;;5067165;28;20391;-72
2023/07/24 02:23:56;;;;;;;10.90;1.98;;;;;;;;;;5066154;28;20044;-72
2023/07/24 02:26:28;;;;;;;12.88;2.20;;;;;;;;;;5065395;28;20048;-73
2023/07/24 02:28:59;;;;;;;10.65;1.90;;;;;;;;;;5063572;28;20040;-72
2023/07/24 02:31:29;;;;;;;11.27;2.03;;;;;;;;;;5065474;28;20500;-72
2023/07/24 02:34:01;;;;;;;13.02;1.77;;;;;;;;;;5064258;28;20055;-72
2023/07/24 02:36:32;;;;;;;12.82;2.15;;;;;;;;;;5064558;28;20487;-73
2023/07/24 02:39:02;;;;;;;11.90;1.80;;;;;;;;;;5064687;28;20075;-72
2023/07/24 02:41:33;;;;;;;12.45;2.00;;;;;;;;;;5064644;28;20041;-73
2023/07/24 02:44:05;;;;;;;9.93;1.92;;;;;;;;;;5062717;28;20523;-73
2023/07/24 02:46:36;;;;;;;12.18;1.90;;;;;;;;;;5064607;28;20063;-72
2023/07/24 02:49:07;;;;;;;15.70;2.38;;;;;;;;;;5065637;28;20434;-72
2023/07/24 02:51:37;;;;;;;9.15;2.42;;;;;;;;;;5065793;28;20415;-73
2023/07/24 02:54:08;;;;;;;9.63;1.50;;;;;;;;;;5063683;28;20517;-73
2023/07/24 02:56:40;;;;;;;18.67;2.45;;;;;;;;;;5065514;28;20067;-73
2023/07/24 02:59:11;;;;;;;15.68;2.00;;;;;;;;;;5064661;28;20499;-72
2023/07/24 03:01:40;;;;;;;17.42;1.90;;;;;;;;;;5065462;28;20041;-72
2023/07/24 03:04:12;;;;;;;11.90;1.58;;;;;;;;;;5064905;28;20057;-72
2023/07/24 03:06:42;;;;;;;12.45;2.17;;;;;;;;;;5066165;28;20483;-73
2023/07/24 03:09:13;;;;;;;9.32;1.70;;;;;;;;;;5063762;28;20072;-73
2023/07/24 03:11:43;;;;;;;11.15;1.77;;;;;;;;;;5064583;28;20063;-72
2023/07/24 03:14:13;;;;;;;12.68;1.52;;;;;;;;;;5064605;28;20063;-73
2023/07/24 03:16:44;;;;;;;13.95;1.50;;;;;;;;;;5064488;28;20045;-73
2023/07/24 03:19:17;;;;;;;13.40;2.00;;;;;;;;;;5064924;28;20056;-72
2023/07/24 03:21:48;;;;;;;10.75;1.45;;;;;;;;;;5065561;28;20059;-72
2023/07/24 03:24:18;;;;;;;20.20;2.08;;;;;;;;;;5064341;28;20048;-73
2023/07/24 03:26:50;;;;;;;12.32;1.90;;;;;;;;;;5064099;28;20055;-72
2023/07/24 03:29:21;;;;;;;13.40;1.48;;;;;;;;;;5062488;28;20056;-72
2023/07/24 03:31:52;;;;;;;17.50;2.42;;;;;;;;;;5064031;28;20551;-72
2023/07/24 03:34:23;;;;;;;15.30;2.72;;;;;;;;;;5063819;28;20527;-73
2023/07/24 03:36:53;;;;;;;8.80;1.70;;;;;;;;;;5063279;28;20063;-72
2023/07/24 03:39:24;;;;;;;13.65;1.98;;;;;;;;;;5064062;28;20055;-72
2023/07/24 03:41:55;;;;;;;14.13;2.17;;;;;;;;;;5063848;28;20036;-72
2023/07/24 03:44:25;;;;;;;15.60;2.47;;;;;;;;;;5063838;28;20441;-72
2023/07/24 03:46:55;;;;;;;16.13;2.22;;;;;;;;;;5064934;28;20048;-72
2023/07/24 03:49:26;;;;;;;17.73;2.53;;;;;;;;;;5063655;28;20414;-72
2023/07/24 03:51:57;;;;;;;12.50;1.90;;;;;;;;;;5065278;28;20045;-74
2023/07/24 03:54:28;;;;;;;7.28;1.55;;;;;;;;;;5063816;28;20049;-73
2023/07/24 03:56:58;;;;;;;10.43;2.13;;;;;;;;;;5064843;28;20052;-73
2023/07/24 03:59:29;;;;;;;16.25;2.25;;;;;;;;;;5064588;28;20389;-73
2023/07/24 04:01:59;;;;;;;12.77;2.33;;;;;;;;;;5062747;28;20064;-73
2023/07/24 04:04:29;;;;;;;12.23;2.13;;;;;;;;;;5064565;28;20044;-73
2023/07/24 04:07:00;;;;;;;12.07;1.67;;;;;;;;;;5062723;28;20055;-74
2023/07/24 04:09:31;;;;;;;15.10;1.83;;;;;;;;;;5062315;28;20067;-73
2023/07/24 04:12:03;;;;;;;11.23;2.00;;;;;;;;;;5062360;28;20048;-74
2023/07/24 04:14:33;;;;;;;11.30;2.00;;;;;;;;;;5064011;28;20388;-73
2023/07/24 04:17:03;;;;;;;19.60;2.10;;;;;;;;;;5064465;28;20051;-73
2023/07/24 04:19:35;;;;;;;15.00;2.60;;;;;;;;;;5062672;28;21155;-74
2023/07/24 04:22:07;;;;;;;11.32;1.80;;;;;;;;;;5063685;28;20052;-75
2023/07/24 04:24:39;;;;;;;26.80;2.38;;;;;;;;;;5062679;28;20415;-74
2023/07/24 04:27:09;;;;;;;9.02;1.63;;;;;;;;;;5064065;28;20048;-74
2023/07/24 04:29:39;;;;;;;17.90;2.60;;;;;;;;;;5061977;28;20060;-74
2023/07/24 04:32:09;;;;;;;19.25;2.20;;;;;;;;;;5061477;28;20068;-74
2023/07/24 04:34:41;;;;;;;12.65;1.70;;;;;;;;;;5064573;28;20521;-74
2023/07/24 04:37:11;;;;;;;18.90;2.30;;;;;;;;;;5063865;28;20060;-74
2023/07/24 04:39:41;;;;;;;13.73;1.65;;;;;;;;;;5063587;28;20051;-74
2023/07/24 04:42:12;;;;;;;10.63;2.20;;;;;;;;;;5064207;28;20049;-74
2023/07/24 04:44:42;;;;;;;11.27;2.40;;;;;;;;;;5063887;28;20055;-74
2023/07/24 04:47:13;;;;;;;15.65;2.65;;;;;;;;;;5061502;28;20049;-74
2023/07/24 04:49:43;;;;;;;17.30;2.70;;;;;;;;;;5064570;28;20044;-74
2023/07/24 04:52:13;;;;;;;17.08;2.28;;;;;;;;;;5064277;28;20053;-74
2023/07/24 04:54:44;;;;;;;16.30;2.38;;;;;;;;;;5062319;28;20048;-74
2023/07/24 04:57:15;;;;;;;12.30;2.45;;;;;;;;;;5060748;28;20056;-73
2023/07/24 04:59:46;;;;;;;15.10;2.20;;;;;;;;;;5062865;28;20048;-74
2023/07/24 05:02:16;;;;;;;13.98;2.30;;;;;;;;;;5063539;28;20051;-73
2023/07/24 05:04:46;;;;;;;10.02;2.03;;;;;;;;;;5063803;28;20048;-74
2023/07/24 05:07:17;;;;;;;13.93;2.70;;;;;;;;;;5061708;28;20037;-74
2023/07/24 05:09:48;;;;;;;16.13;1.85;;;;;;;;;;5062238;28;20048;-74
2023/07/24 05:12:18;;;;;;;16.40;2.53;;;;;;;;;;5063648;28;20416;-76
2023/07/24 05:14:49;;;;;;;14.88;2.50;;;;;;;;;;5061457;28;20051;-73
2023/07/24 05:17:19;;;;;;;12.50;2.28;;;;;;;;;;5062142;28;20055;-74
2023/07/24 05:19:52;;;;;;;17.35;2.50;;;;;;;;;;5065149;28;20049;-74
2023/07/24 05:22:23;;;;;;;17.30;2.33;;;;;;;;;;5065652;28;20040;-74
2023/07/24 05:24:53;;;;;;;6.95;1.77;;;;;;;;;;5065073;28;20550;-75
2023/07/24 05:27:23;;;;;;;13.38;1.90;;;;;;;;;;5065698;28;20048;-74
2023/07/24 05:29:54;;;;;;;16.45;2.30;;;;;;;;;;5066722;28;20048;-74
2023/07/24 05:32:25;;;;;;;20.88;2.70;;;;;;;;;;5065338;28;20056;-75
2023/07/24 05:34:55;;;;;;;16.20;2.50;;;;;;;;;;5064996;28;20055;-74
2023/07/24 05:37:25;;;;;;;16.35;2.55;;;;;;;;;;5065330;28;20048;-74
2023/07/24 05:39:56;;;;;;;13.20;2.47;;;;;;;;;;5065112;28;20094;-74
2023/07/24 05:42:26;;;;;;;17.08;2.67;;;;;;;;;;5064965;28;20426;-73
2023/07/24 05:44:57;;;;;;;18.08;2.38;;;;;;;;;;5064659;28;20055;-74
2023/07/24 05:47:27;;;;;;;11.93;1.85;;;;;;;;;;5065134;28;20055;-74
2023/07/24 05:49:59;;;;;;;13.55;2.33;;;;;;;;;;5064633;28;20522;-75
2023/07/24 05:52:28;;;;;;;16.58;2.30;;;;;;;;;;5064778;28;20051;-74
2023/07/24 05:54:59;;;;;;;10.05;2.50;;;;;;;;;;5064987;28;20526;-74
2023/07/24 05:57:30;;;;;;;13.75;2.17;;;;;;;;;;5065022;28;20044;-74
2023/07/24 06:00:03;;;;;;;12.15;2.03;;;;;;;;;;5064594;28;20415;-73
2023/07/24 06:02:38;;;;;;;9.02;1.90;;;;;;;;;;5068339;28;20541;-73
2023/07/24 06:05:10;;;;;;;10.15;2.10;;;;;;;;;;5064850;28;20045;-73
2023/07/24 06:07:41;;;;;;;13.63;2.28;;;;;;;;;;5064801;28;20044;-72
2023/07/24 06:10:12;;;;;;;12.13;2.42;;;;;;;;;;5067460;28;20510;-73
2023/07/24 06:12:42;;;;;;;9.20;2.00;;;;;;;;;;5067014;28;20499;-72
2023/07/24 06:15:13;;;;;;;16.33;1.75;;;;;;;;;;5064902;28;20044;-73
2023/07/24 06:17:44;;;;;;;19.10;2.42;;;;;;;;;;5065835;28;20052;-73
2023/07/24 06:20:14;;;;;;;9.45;1.88;;;;;;;;;;5063688;28;20049;-73
2023/07/24 06:22:44;;;;;;;6.95;1.85;;;;;;;;;;5064291;28;20044;-73
2023/07/24 06:25:14;;;;;;;14.40;2.10;;;;;;;;;;5064511;28;20049;-72
2023/07/24 06:27:45;;;;;;;15.32;2.20;;;;;;;;;;5064344;28;20045;-73
2023/07/24 06:30:17;;;;;;;12.68;1.88;;;;;;;;;;5063708;28;20055;-74
2023/07/24 06:32:47;;;;;;;9.23;1.83;;;;;;;;;;5063754;28;20052;-74
2023/07/24 06:35:17;;;;;;;14.82;1.95;;;;;;;;;;5063490;28;20048;-72
2023/07/24 06:37:48;;;;;;;12.95;2.17;;;;;;;;;;5063987;28;20049;-74
2023/07/24 06:40:18;;;;;;;18.35;2.95;;;;;;;;;;5066192;28;20112;-73
2023/07/24 06:42:49;;;;;;;10.45;1.88;;;;;;;;;;5066413;28;20051;-73
2023/07/24 06:45:20;;;;;;;16.52;1.85;;;;;;;;;;5066180;28;20499;-73
2023/07/24 06:47:50;;;;;;;13.10;2.17;;;;;;;;;;5066667;28;20051;-73
2023/07/24 06:50:21;;;;;;;13.07;1.98;;;;;;;;;;5064041;28;20059;-72
2023/07/24 06:52:53;;;;;;;18.13;2.75;;;;;;;;;;5065396;28;20049;-73
2023/07/24 06:55:24;;;;;;;14.13;1.90;;;;;;;;;;5064595;28;20055;-73
2023/07/24 06:57:54;;;;;;;12.98;2.25;;;;;;;;;;5065260;28;20048;-73
2023/07/24 07:00:24;;;;;;;13.40;2.33;;;;;;;;;;5064265;28;20392;-74
2023/07/24 07:02:57;;;;;;;9.48;1.58;;;;;;;;;;5063842;28;20044;-73
2023/07/24 07:05:28;;;;;;;14.82;2.83;;;;;;;;;;5065638;28;20045;-73
2023/07/24 07:07:58;;;;;;;15.05;2.53;;;;;;;;;;5065603;28;20056;-73
2023/07/24 07:10:31;;;;;;;15.77;2.40;;;;;;;;;;5065204;28;20388;-72
2023/07/24 07:13:04;;;;;;;13.60;2.00;;;;;;;;;;5064935;28;20525;-73
2023/07/24 07:15:36;;;;;;;17.60;2.50;;;;;;;;;;5065239;28;20048;-73
2023/07/24 07:18:06;;;;;;;17.40;1.95;;;;;;;;;;5065140;28;20533;-73
2023/07/24 07:20:36;;;;;;;11.98;1.85;;;;;;;;;;5065565;28;20044;-73
2023/07/24 07:23:07;;;;;;;12.85;1.83;;;;;;;;;;5065125;28;20518;-73
2023/07/24 07:25:38;;;;;;;11.00;1.73;;;;;;;;;;5065033;28;20052;-73
2023/07/24 07:28:07;;;;;;;14.43;2.13;;;;;;;;;;5065101;28;20044;-72
2023/07/24 07:30:38;;;;;;;12.50;1.75;;;;;;;;;;5064774;28;20059;-72
2023/07/24 07:33:10;;;;;;;10.05;2.00;;;;;;;;;;5062827;28;20396;-73
2023/07/24 07:35:41;;;;;;;9.93;1.60;;;;;;;;;;5063394;28;20504;-73
2023/07/24 07:38:11;;;;;;;9.45;1.63;;;;;;;;;;5063076;28;20047;-72
2023/07/24 07:40:42;;;;;;;10.05;1.58;;;;;;;;;;5062448;28;20893;-72
2023/07/24 07:43:12;;;;;;;12.23;2.25;;;;;;;;;;5062704;28;20074;-73
2023/07/24 07:45:42;;;;;;;10.63;2.08;;;;;;;;;;5062602;28;20063;-73
2023/07/24 07:48:13;;;;;;;9.45;1.70;;;;;;;;;;5062290;28;20060;-73
2023/07/24 07:50:44;;;;;;;12.38;2.15;;;;;;;;;;5063037;28;20411;-73
2023/07/24 07:53:14;;;;;;;20.13;1.90;;;;;;;;;;5062403;28;20488;-73
2023/07/24 07:55:45;;;;;;;12.52;1.48;;;;;;;;;;5063195;28;20063;-73
2023/07/24 07:58:16;;;;;;;11.25;1.88;;;;;;;;;;5062487;28;20041;-73
2023/07/24 08:00:52;;;;;;;15.30;2.75;;;;;;;;;;5060506;28;20411;-73
2023/07/24 08:03:22;;;;;;;;;;;;;;;;;;5063358;28;20053;-73
2023/07/24 08:05:53;;;;;;;13.45;1.42;;;;;;;;;;5063772;28;19928;-73
2023/07/24 08:08:25;;;;;;;18.02;1.67;;;;;;;;;;5061975;28;20573;-73
2023/07/24 08:10:55;;;;;;;8.93;1.55;;;;;;;;;;5062446;28;20044;-73
2023/07/24 08:13:25;;;;;;;11.10;1.80;;;;;;;;;;5063360;28;20055;-73
2023/07/24 08:15:55;;;;;;;19.52;3.05;;;;;;;;;;5064345;28;20414;-76
2023/07/24 08:18:26;;;;;;;17.38;1.92;;;;;;;;;;5063302;28;20053;-74
2023/07/24 08:20:56;;;;;;;11.73;2.08;;;;;;;;;;5063144;28;20422;-73
2023/07/24 08:23:26;;;;;;;18.55;4.45;;;;;;;;;;5063205;28;20045;-73
2023/07/24 08:26:17;;;;;;;11.45;1.92;;;;;;;;;;5062506;28;20048;-73
2023/07/24 08:28:49;;;;;;;14.63;1.63;;;;;;;;;;5055032;28;20052;-73
2023/07/24 08:31:20;;;;;;;13.30;1.38;;;;;;;;;;5062506;28;20048;-74
2023/07/24 08:34:00;;;;;;;13.55;2.03;;;;;;;;;;5062895;28;20052;-74
2023/07/24 08:36:51;;;;;;;7.75;1.42;;;;;;;;;;5018082;28;20053;-72
2023/07/24 08:39:22;;;;;;;12.20;1.70;;;;;;;;;;5018833;28;20646;-73
2023/07/24 08:41:57;;;;;;;13.98;2.03;;;;;;;;;;5021933;28;20045;-73
2023/07/24 08:44:31;;;;;;;12.60;1.60;;;;;;;;;;5063750;28;20041;-73
2023/07/24 08:47:02;;;;;;;14.02;1.67;;;;;;;;;;5062999;28;20397;-73
2023/07/24 08:49:44;;;;;;;;;;;;;;;;;;;;;
2023/07/24 08:52:17;;;;;;;14.02;1.50;;;;;;;;;;5061943;28;20056;-74
2023/07/24 08:55:04;;;;;;;20.45;2.03;;;;;;;;;;5066726;28;20055;-73
2023/07/24 08:57:35;;;;;;;13.15;2.30;;;;;;;;;;5063974;28;20059;-73
2023/07/24 09:00:06;;;;;;;13.18;1.50;;;;;;;;;;5066623;28;20525;-74
2023/07/24 09:02:37;;;;;;;15.77;2.05;;;;;;;;;;5066522;28;20115;-74
2023/07/24 09:05:08;;;;;;;15.85;1.70;;;;;;;;;;5066338;28;20052;-73
2023/07/24 09:07:38;;;;;;;15.43;2.30;;;;;;;;;;5065863;28;20048;-73
2023/07/24 09:10:10;;;;;;;12.38;2.08;;;;;;;;;;5066960;28;20040;-73
2023/07/24 09:12:42;;;;;;;15.50;1.40;;;;;;;;;;5067079;28;20063;-74
2023/07/24 09:15:13;;;;;;;7.97;1.42;;;;;;;;;;5066448;28;20032;-73
2023/07/24 09:17:53;;;;;;;11.45;1.98;;;;;;;;;;5066989;28;20060;-73
2023/07/24 09:20:24;;;;;;;23.33;2.03;;;;;;;;;;5066908;28;20517;-73
2023/07/24 09:22:57;;;;;;;11.70;2.78;;;;;;;;;;5065349;28;20063;-73
2023/07/24 09:25:31;;;;;;;9.82;1.40;;;;;;;;;;5066397;28;20098;-73
2023/07/24 09:28:09;;;;;;;18.02;1.80;;;;;;;;;;5065388;28;20052;-74
2023/07/24 09:30:41;;;;;;;11.48;1.55;;;;;;;;;;5065290;28;20063;-73
2023/07/24 09:33:12;;;;;;;15.75;2.28;;;;;;;;;;5065249;28;20531;-73
2023/07/24 09:35:43;;;;;;;17.92;2.20;;;;;;;;;;5064764;28;20063;-73
2023/07/24 09:38:13;;;;;;;9.68;1.75;;;;;;;;;;5065898;28;20052;-73
2023/07/24 09:40:47;;;;;;;17.52;1.95;;;;;;;;;;5066177;28;20068;-73
2023/07/24 09:43:22;;;;;;;16.30;1.60;;;;;;;;;;5067659;28;20044;-73
2023/07/24 09:45:57;;;;;;;11.93;2.08;;;;;;;;;;5067794;28;20036;-73
2023/07/24 09:48:28;;;;;;;10.02;1.55;;;;;;;;;;5067822;28;20047;-73
2023/07/24 09:51:01;;;;;;;21.52;4.00;;;;;;;;;;5067241;28;20063;-73
2023/07/24 09:53:45;;;;;;;18.17;2.25;;;;;;;;;;5066673;28;20048;-73
2023/07/24 09:56:24;;;;;;;18.73;2.15;;;;;;;;;;5067145;28;20056;-74
2023/07/24 09:59:15;;;;;;;26.45;2.10;;;;;;;;;;5068625;28;20060;-78
2023/07/24 10:01:48;;;;;;;15.07;2.97;;;;;;;;;;5049715;28;20525;-75
2023/07/24 10:04:21;;;;;;;14.13;1.63;;;;;;;;;;5064829;28;20094;-73
2023/07/24 10:06:52;;;;;;;12.52;1.92;;;;;;;;;;5064951;28;20060;-75
2023/07/24 10:09:23;;;;;;;23.10;2.55;;;;;;;;;;5065922;28;20048;-74
2023/07/24 10:11:59;;;;;;;16.10;2.28;;;;;;;;;;5064866;28;20060;-73
2023/07/24 10:14:31;;;;;;;13.05;1.58;;;;;;;;;;5065268;28;20055;-73
2023/07/24 10:17:02;;;;;;;13.43;1.63;;;;;;;;;;5064899;28;20396;-73
2023/07/24 10:19:39;;;;;;;24.40;3.30;;;;;;;;;;5065276;28;20061;-72
2023/07/24 10:22:22;;;;;;;15.15;1.90;;;;;;;;;;5066965;28;20048;-72
2023/07/24 10:24:57;;;;;;;17.45;3.05;;;;;;;;;;5066120;28;20436;-73
2023/07/24 10:27:28;;;;;;;23.27;1.75;;;;;;;;;;5065124;28;20495;-74
2023/07/24 10:30:02;;;;;;;24.60;2.67;;;;;;;;;;5065703;28;20056;-75
2023/07/24 10:32:51;;;;;;;16.13;2.42;;;;;;;;;;5063630;28;20059;-73
2023/07/24 10:35:25;;;;;;;22.27;2.47;;;;;;;;;;5065189;28;20052;-73
2023/07/24 10:38:02;;;;;;;17.05;2.10;;;;;;;;;;5065582;28;20510;-73
2023/07/24 10:40:44;;;;;;;13.70;1.85;;;;;;;;;;5068313;28;20063;-74
2023/07/24 10:43:42;;;;;;;23.02;2.17;;;;;;;;;;5066082;28;20533;-73
2023/07/24 10:46:18;;;;;;;;;;;;;;;;;;5060432;28;20067;-74
2023/07/24 10:49:00;;;;;;;14.30;1.95;;;;;;;;;;5063527;28;19924;-74
2023/07/24 10:51:35;;;;;;;;;;;;;;;;;;5065729;28;20048;-74
2023/07/24 10:54:06;;;;;;;22.33;2.72;;;;;;;;;;5065557;28;20386;-73
2023/07/24 10:56:37;;;;;;;23.40;4.07;;;;;;;;;;5063916;28;20053;-73
2023/07/24 10:59:10;;;;;;;28.65;3.65;;;;;;;;;;5065013;28;20067;-74
2023/07/24 11:01:42;;;;;;;27.42;2.47;;;;;;;;;;5064491;28;20045;-73
2023/07/24 11:04:23;;;;;;;19.25;1.85;;;;;;;;;;5064390;28;20056;-74
2023/07/24 11:07:04;;;;;;;;;;;;;;;;;;;;;
2023/07/24 11:09:37;;;;;;;19.13;1.77;;;;;;;;;;5065935;28;20040;-73
2023/07/24 11:12:14;;;;;;;23.60;2.38;;;;;;;;;;5064977;28;20055;-74
2023/07/24 11:14:55;;;;;;;16.70;2.30;;;;;;;;;;5064495;28;20052;-74
2023/07/24 11:17:45;;;;;;;18.95;2.33;;;;;;;;;;5064369;28;20574;-74
2023/07/24 11:20:17;;;;;;;10.32;1.45;;;;;;;;;;5063402;28;20079;-74
2023/07/24 11:22:48;;;;;;;18.67;2.17;;;;;;;;;;5063315;28;20049;-74
2023/07/24 11:25:18;;;;;;;18.63;2.00;;;;;;;;;;5063636;28;20048;-73
2023/07/24 11:27:48;;;;;;;12.35;1.90;;;;;;;;;;5062962;28;20045;-73
2023/07/24 11:30:21;;;;;;;13.35;2.10;;;;;;;;;;5062840;28;20048;-74
2023/07/24 11:32:52;;;;;;;18.38;2.47;;;;;;;;;;5062682;28;20048;-74
2023/07/24 11:35:25;;;;;;;11.18;1.50;;;;;;;;;;5062056;28;20441;-74
2023/07/24 11:37:57;;;;;;;9.32;1.80;;;;;;;;;;5063362;28;20506;-74
2023/07/24 11:40:41;;;;;;;18.30;2.05;;;;;;;;;;5063678;28;20056;-74
2023/07/24 11:43:20;;;;;;;16.45;1.33;;;;;;;;;;5063466;28;20056;-74
2023/07/24 11:45:56;;;;;;;11.63;1.40;;;;;;;;;;5064087;28;20443;-74
2023/07/24 11:48:28;;;;;;;16.50;1.63;;;;;;;;;;5062626;28;20052;-73
2023/07/24 11:50:59;;;;;;;28.05;2.33;;;;;;;;;;5063517;28;20047;-73
2023/07/24 11:53:33;;;;;;;13.02;1.52;;;;;;;;;;5063247;28;20060;-73
2023/07/24 11:56:23;;;;;;;23.88;1.77;;;;;;;;;;5058159;28;20156;-73
2023/07/24 11:58:54;;;;;;;15.30;1.67;;;;;;;;;;5063444;28;20502;-74
2023/07/24 12:01:25;;;;;;;8.60;1.50;;;;;;;;;;5062268;28;20055;-73
2023/07/24 12:03:56;;;;;;;19.45;1.85;;;;;;;;;;5061739;28;20067;-73
2023/07/24 12:06:26;;;;;;;20.10;1.55;;;;;;;;;;5062937;28;20418;-74
2023/07/24 12:09:06;;;;;;;11.55;1.77;;;;;;;;;;5061462;28;20506;-73
2023/07/24 12:11:44;;;;;;;17.33;1.65;;;;;;;;;;5064734;28;20410;-72
2023/07/24 12:14:15;;;;;;;17.05;1.90;;;;;;;;;;5063223;28;20048;-73
2023/07/24 12:16:45;;;;;;;13.82;2.70;;;;;;;;;;5062786;28;20045;-73
2023/07/24 12:19:15;;;;;;;16.67;1.83;;;;;;;;;;5060458;28;20511;-73
2023/07/24 12:21:47;;;;;;;17.50;1.80;;;;;;;;;;5062580;28;20055;-74
2023/07/24 12:24:17;;;;;;;17.70;1.55;;;;;;;;;;5062035;28;20032;-74
2023/07/24 12:26:47;;;;;;;18.27;1.77;;;;;;;;;;5062572;28;20044;-73
2023/07/24 12:29:17;;;;;;;14.65;2.08;;;;;;;;;;5064689;28;20056;-72
2023/07/24 12:31:48;;;;;;;17.60;1.85;;;;;;;;;;5063656;28;20362;-73
2023/07/24 12:34:21;;;;;;;13.15;1.95;;;;;;;;;;5062755;28;20677;-74
2023/07/24 12:36:52;;;;;;;19.98;2.35;;;;;;;;;;5064297;28;20063;-74
2023/07/24 12:39:23;;;;;;;22.05;2.10;;;;;;;;;;5060920;28;20063;-74
2023/07/24 12:41:54;;;;;;;21.00;2.33;;;;;;;;;;5063286;28;20578;-73
2023/07/24 12:44:27;;;;;;;24.48;1.88;;;;;;;;;;5063227;28;20052;-74
2023/07/24 12:46:57;;;;;;;27.75;2.10;;;;;;;;;;5063800;28;20041;-74
2023/07/24 12:49:27;;;;;;;29.27;2.63;;;;;;;;;;5064038;28;20507;-74
2023/07/24 12:51:58;;;;;;;23.23;2.08;;;;;;;;;;5062994;28;20049;-73
2023/07/24 12:54:28;;;;;;;24.30;2.17;;;;;;;;;;5062205;28;20543;-73
2023/07/24 12:57:19;;;;;;;19.10;2.25;;;;;;;;;;5063305;28;20413;-75
2023/07/24 12:59:51;;;;;;;23.65;3.30;;;;;;;;;;5061393;28;20040;-73
2023/07/24 13:02:21;;;;;;;22.15;1.92;;;;;;;;;;5061076;28;20045;-73
2023/07/24 13:04:58;;;;;;;24.65;3.05;;;;;;;;;;5061752;28;20052;-73
2023/07/24 13:07:29;;;;;;;21.73;1.95;;;;;;;;;;5061872;28;20412;-73
2023/07/24 13:10:00;;;;;;;20.20;2.25;;;;;;;;;;5062591;28;20045;-74
2023/07/24 13:12:32;;;;;;;28.85;2.00;;;;;;;;;;5062670;28;20488;-72
2023/07/24 13:15:04;;;;;;;24.73;2.58;;;;;;;;;;5062364;28;20052;-73
2023/07/24 13:17:36;;;;;;;27.33;1.80;;;;;;;;;;5061360;28;20056;-76
2023/07/24 13:20:08;;;;;;;21.10;2.42;;;;;;;;;;5061320;28;20124;-76
2023/07/24 13:22:38;;;;;;;17.80;3.22;;;;;;;;;;5060874;28;20396;-73
2023/07/24 13:25:09;;;;;;;33.80;3.67;;;;;;;;;;5062008;28;20059;-74
2023/07/24 13:27:44;;;;;;;32.47;4.22;;;;;;;;;;5061268;28;20416;-73
2023/07/24 13:30:14;;;;;;;20.27;2.53;;;;;;;;;;5061179;28;20059;-74
2023/07/24 13:32:45;;;;;;;20.13;2.20;;;;;;;;;;5062016;28;20037;-75
2023/07/24 13:35:15;;;;;;;25.55;3.55;;;;;;;;;;5062259;28;20045;-74
2023/07/24 13:37:46;;;;;;;22.77;2.85;;;;;;;;;;5061129;28;20049;-73
2023/07/24 13:40:16;;;;;;;42.80;3.33;;;;;;;;;;5062741;28;20052;-75
2023/07/24 13:42:47;;;;;;;20.20;2.90;;;;;;;;;;5064384;28;20055;-74
2023/07/24 13:45:25;;;;;;;24.48;3.25;;;;;;;;;;5065217;28;20052;-75
2023/07/24 13:47:58;;;;;;;26.35;2.70;;;;;;;;;;5064842;28;20530;-75
2023/07/24 13:50:31;;;;;;;22.50;2.70;;;;;;;;;;5064693;28;20063;-75
2023/07/24 13:53:01;;;;;;;26.33;2.40;;;;;;;;;;5066209;28;20046;-76
2023/07/24 13:55:31;;;;;;;27.10;3.05;;;;;;;;;;5065847;28;20044;-75
2023/07/24 13:58:02;;;;;;;13.40;3.58;;;;;;;;;;5065511;28;20048;-75
2023/07/24 14:00:33;;;;;;;14.23;2.45;;;;;;;;;;5064170;28;20503;-74
2023/07/24 14:03:03;;;;;;;28.20;3.42;;;;;;;;;;5065629;28;20044;-75
2023/07/24 14:05:36;;;;;;;22.80;2.72;;;;;;;;;;5065660;28;20044;-77
2023/07/24 14:08:08;;;;;;;24.58;3.78;;;;;;;;;;5064756;28;20052;-74
2023/07/24 14:21:53;;;;;;;33.63;3.08;;;;;;;;;;5162914;27;20252;-74
2023/07/24 14:24:24;;;;;;;22.42;2.40;;;;;;;;;;5141604;27;20723;-73
2023/07/24 14:26:54;;;;;;;27.13;2.60;;;;;;;;;;5141469;27;20035;-73
2023/07/24 14:29:25;;;;;;;33.20;3.13;;;;;;;;;;5141581;27;20046;-73
2023/07/24 14:31:55;;;;;;;19.73;2.65;;;;;;;;;;5141073;27;20436;-73
2023/07/24 14:34:26;;;;;;;25.20;3.30;;;;;;;;;;5141502;27;20051;-73
2023/07/24 14:36:57;;;;;;;22.45;3.38;;;;;;;;;;5139839;27;20051;-73
2023/07/24 14:39:26;;;;;;;20.38;2.22;;;;;;;;;;5120690;28;20619;-73
2023/07/24 14:41:58;;;;;;;18.85;2.80;;;;;;;;;;5120413;28;20497;-72
2023/07/24 14:44:29;;;;;;;21.98;2.88;;;;;;;;;;5120044;28;20051;-74
2023/07/24 14:46:59;;;;;;;23.17;2.67;;;;;;;;;;5121371;28;20055;-72
2023/07/24 14:49:29;;;;;;;36.50;3.50;;;;;;;;;;5120296;28;20501;-75
2023/07/24 14:51:59;;;;;;;35.92;2.78;;;;;;;;;;5102617;28;20498;-75
2023/07/24 14:54:29;;;;;;;20.13;2.83;;;;;;;;;;5121065;28;20054;-74
2023/07/24 14:57:01;;;;;;;16.42;2.75;;;;;;;;;;5119741;28;20603;-71
2023/07/24 14:59:51;;;;;;;23.73;2.50;;;;;;;;;;5120283;28;20047;-75
2023/07/24 15:02:22;;;;;;;26.05;2.90;;;;;;;;;;5120703;28;20494;-75
2023/07/24 15:04:52;;;;;;;32.00;3.40;;;;;;;;;;5120755;28;20039;-74
2023/07/24 15:21:35;;;;;;;20.23;3.17;;;;;;;;;;5079446;28;20406;-74
2023/07/24 15:24:06;;;;;;;12.77;2.10;;;;;;;;;;5080077;28;20527;-73
2023/07/24 15:26:36;;;;;;;20.48;2.42;;;;;;;;;;5080366;28;20051;-73
2023/07/24 15:29:09;;;;;;;13.55;1.80;;;;;;;;;;5078817;28;20059;-74
2023/07/24 15:31:40;;;;;;;26.38;3.35;;;;;;;;;;5079810;28;20040;-74